Time;durP1;ratioP1;P1;durP2;ratioP2;P2;SDS_P1;SDS_P2;PMS_P1;PMS_P2;Temp;Humidity;BMP_temperature;BMP_pressure;BME280_temperature;BME280_humidity;BME280_pressure;Samples;Min_cycle;Max_cycle;Signal;HPM_P1;HPM_P2
2021/04/20 00:01:55;;;;;;;44.15;33.47;;;10.40;93.70;;;;;;5038614;28;20060;-78
2021/04/20 00:05:00;;;;;;;40.83;31.30;;;10.40;93.70;;;;;;5050956;28;20040;-78
2021/04/20 00:08:04;;;;;;;46.88;35.67;;;10.30;93.80;;;;;;5050791;28;20040;-78
2021/04/20 00:11:09;;;;;;;47.10;35.25;;;10.40;93.80;;;;;;5050838;28;20040;-79
2021/04/20 00:14:14;;;;;;;48.13;37.10;;;10.40;93.40;;;;;;5051234;28;20511;-78
2021/04/20 00:17:18;;;;;;;49.25;36.90;;;10.40;93.20;;;;;;5050891;28;20043;-78
2021/04/20 00:20:23;;;;;;;52.13;37.22;;;10.40;93.40;;;;;;5051024;28;20052;-78
2021/04/20 00:23:27;;;;;;;53.58;39.72;;;10.30;93.30;;;;;;5051214;28;20044;-78
2021/04/20 00:26:38;;;;;;;55.13;36.60;;;10.30;93.50;;;;;;5051118;28;20392;-78
2021/04/20 00:29:43;;;;;;;59.58;36.25;;;10.20;93.60;;;;;;5050817;28;20108;-79
2021/04/20 00:32:47;;;;;;;51.40;35.60;;;10.20;93.60;;;;;;5050914;28;20507;-78
2021/04/20 00:35:52;;;;;;;53.15;35.38;;;10.10;93.70;;;;;;5050617;28;20044;-78
2021/04/20 00:38:56;;;;;;;48.08;34.65;;;10.20;93.70;;;;;;5050811;28;20514;-78
2021/04/20 00:42:05;;;;;;;44.50;33.72;;;10.20;93.60;;;;;;5050526;28;20055;-78
2021/04/20 00:45:09;;;;;;;40.70;31.42;;;10.20;93.50;;;;;;5051285;28;20052;-78
2021/04/20 00:48:13;;;;;;;36.50;27.35;;;10.30;93.50;;;;;;5053512;28;20044;-78
2021/04/20 00:51:19;;;;;;;35.42;26.98;;;10.30;92.80;;;;;;5042343;28;20056;-78
2021/04/20 00:54:25;;;;;;;32.92;24.52;;;10.40;92.30;;;;;;5054256;28;20052;-79
2021/04/20 00:57:32;;;;;;;33.35;24.65;;;10.30;92.50;;;;;;5054385;28;20039;-78
2021/04/20 01:00:37;;;;;;;36.75;26.45;;;10.30;92.30;;;;;;5053996;28;20051;-79
2021/04/20 01:03:41;;;;;;;35.58;24.77;;;10.20;92.50;;;;;;5054363;28;20392;-78
2021/04/20 01:06:48;;;;;;;36.00;24.95;;;10.20;92.50;;;;;;5054017;28;20404;-79
2021/04/20 01:09:52;;;;;;;37.00;26.70;;;10.30;92.40;;;;;;5053754;28;20048;-78
2021/04/20 01:12:57;;;;;;;32.08;24.20;;;10.30;92.80;;;;;;5053941;28;20502;-79
2021/04/20 01:16:05;;;;;;;34.15;23.13;;;10.30;92.90;;;;;;5053639;28;20048;-79
2021/04/20 01:19:14;;;;;;;32.40;22.85;;;10.20;92.60;;;;;;5053373;28;20040;-78
2021/04/20 01:22:20;;;;;;;29.30;23.02;;;10.20;92.60;;;;;;5054036;28;20390;-78
2021/04/20 01:25:24;;;;;;;30.17;23.55;;;10.10;92.80;;;;;;5053688;28;20056;-78
2021/04/20 01:28:30;;;;;;;37.67;29.38;;;10.00;93.10;;;;;;5053932;28;20400;-79
2021/04/20 01:31:36;;;;;;;48.40;34.50;;;10.00;93.20;;;;;;5053752;28;20040;-79
2021/04/20 01:34:40;;;;;;;45.88;34.80;;;10.00;93.90;;;;;;5052821;28;20051;-78
2021/04/20 01:37:44;;;;;;;44.92;33.00;;;10.00;94.30;;;;;;5053417;28;20040;-79
2021/04/20 01:40:48;;;;;;;43.65;29.75;;;9.90;94.70;;;;;;5053418;28;20491;-79
2021/04/20 01:43:55;;;;;;;40.55;30.08;;;9.90;94.80;;;;;;5053544;28;20048;-78
2021/04/20 01:46:59;;;;;;;40.22;30.65;;;10.00;95.10;;;;;;5053164;28;20048;-78
2021/04/20 01:50:05;;;;;;;47.72;33.95;;;10.10;94.90;;;;;;5052402;28;20048;-79
2021/04/20 01:53:09;;;;;;;47.88;35.80;;;10.20;94.40;;;;;;5052619;28;20392;-79
2021/04/20 01:56:13;;;;;;;45.20;34.58;;;10.20;93.90;;;;;;5053371;28;20048;-78
2021/04/20 01:59:19;;;;;;;32.58;25.77;;;10.00;94.10;;;;;;5053090;28;20531;-79
2021/04/20 02:02:23;;;;;;;28.05;21.50;;;9.70;93.90;;;;;;5053147;28;20048;-78
2021/04/20 02:05:27;;;;;;;26.50;20.08;;;9.60;94.30;;;;;;5053313;28;20384;-78
2021/04/20 02:08:36;;;;;;;23.55;18.77;;;9.80;93.70;;;;;;5052895;28;20044;-79
2021/04/20 02:11:40;;;;;;;24.75;18.92;;;9.90;93.20;;;;;;5053142;28;20052;-79
2021/04/20 02:14:44;;;;;;;21.42;16.67;;;10.00;93.00;;;;;;5052861;28;20404;-78
2021/04/20 02:17:49;;;;;;;24.75;18.60;;;10.20;92.50;;;;;;5053001;28;20039;-79
2021/04/20 02:20:54;;;;;;;22.77;19.00;;;10.20;92.10;;;;;;5052899;28;20048;-78
2021/04/20 02:23:58;;;;;;;23.20;17.70;;;10.20;92.10;;;;;;5053217;28;20044;-79
2021/04/20 02:27:03;;;;;;;22.55;17.80;;;10.10;92.10;;;;;;5052759;28;20502;-79
2021/04/20 02:30:10;;;;;;;24.50;17.23;;;10.00;92.60;;;;;;5052635;28;20040;-79
2021/04/20 02:33:14;;;;;;;24.50;17.40;;;10.00;92.40;;;;;;5051924;28;20044;-78
2021/04/20 02:36:18;;;;;;;25.35;18.45;;;10.00;92.10;;;;;;5053768;28;20545;-78
2021/04/20 02:39:25;;;;;;;19.63;16.17;;;9.90;92.30;;;;;;5053990;28;20044;-78
2021/04/20 02:42:32;;;;;;;22.63;16.83;;;9.80;92.60;;;;;;5053582;28;20052;-78
2021/04/20 02:45:37;;;;;;;24.80;19.20;;;9.80;92.60;;;;;;5053455;28;20036;-78
2021/04/20 02:48:42;;;;;;;23.25;18.20;;;9.70;92.60;;;;;;5051068;28;20036;-79
2021/04/20 02:51:47;;;;;;;25.05;20.42;;;9.60;93.00;;;;;;5051130;28;20103;-78
2021/04/20 02:54:51;;;;;;;26.02;20.33;;;9.60;92.90;;;;;;5052293;28;20052;-78
2021/04/20 02:57:57;;;;;;;24.45;19.35;;;9.60;92.90;;;;;;5050972;28;20044;-79
2021/04/20 03:01:05;;;;;;;22.33;18.20;;;9.60;93.00;;;;;;5051057;28;20287;-79
2021/04/20 03:04:19;;;;;;;24.52;19.27;;;9.50;93.10;;;;;;5051759;28;20422;-79
2021/04/20 03:07:24;;;;;;;29.20;18.90;;;9.40;93.40;;;;;;5051586;28;20044;-79
2021/04/20 03:10:32;;;;;;;22.02;18.05;;;9.40;93.50;;;;;;5051579;28;20068;-79
2021/04/20 03:13:36;;;;;;;22.83;17.73;;;9.40;93.40;;;;;;5052087;28;20420;-79
2021/04/20 03:16:41;;;;;;;22.17;17.38;;;9.40;93.20;;;;;;5051668;28;20235;-78
2021/04/20 03:19:45;;;;;;;24.13;18.48;;;9.40;93.10;;;;;;5051864;28;20043;-79
2021/04/20 03:22:51;;;;;;;24.35;17.95;;;9.40;93.30;;;;;;5051006;28;20211;-78
2021/04/20 03:25:55;;;;;;;26.80;18.30;;;9.50;93.10;;;;;;5051043;28;20063;-78
2021/04/20 03:29:04;;;;;;;27.23;17.80;;;9.50;92.90;;;;;;5050598;28;20404;-78
2021/04/20 03:32:10;;;;;;;20.58;17.55;;;9.30;93.30;;;;;;5051728;28;20044;-78
2021/04/20 03:35:19;;;;;;;22.63;18.17;;;9.30;93.20;;;;;;5038987;28;20329;-78
2021/04/20 03:38:45;;;;;;;27.35;19.95;;;9.30;93.10;;;;;;5039007;28;20503;-78
2021/04/20 03:42:07;;;;;;;26.42;18.88;;;9.20;93.20;;;;;;5051171;28;20519;-78
2021/04/20 03:45:17;;;;;;;;;;;9.30;93.20;;;;;;5051881;28;20056;-79
2021/04/20 03:48:32;;;;;;;25.00;18.63;;;9.30;93.10;;;;;;5051543;28;20390;-78
2021/04/20 03:51:39;;;;;;;25.55;19.70;;;9.30;93.10;;;;;;5051331;28;20507;-79
2021/04/20 03:54:45;;;;;;;26.25;19.25;;;9.30;93.00;;;;;;5050907;28;20044;-78
2021/04/20 03:57:49;;;;;;;27.52;20.42;;;9.10;93.30;;;;;;5050708;28;20039;-78
2021/04/20 04:00:56;;;;;;;31.30;21.02;;;9.10;93.40;;;;;;5050622;28;20055;-78
2021/04/20 04:04:01;;;;;;;23.70;18.13;;;8.80;93.90;;;;;;5051238;28;20044;-78
2021/04/20 04:07:06;;;;;;;25.85;17.77;;;8.60;93.90;;;;;;5051291;28;20068;-78
2021/04/20 04:10:11;;;;;;;17.92;15.48;;;8.40;94.40;;;;;;5051228;28;20187;-79
2021/04/20 04:13:17;;;;;;;19.77;16.02;;;8.20;95.00;;;;;;5051237;28;20040;-78
2021/04/20 04:16:24;;;;;;;21.50;17.13;;;8.30;95.40;;;;;;5050923;28;20052;-78
2021/04/20 04:19:38;;;;;;;24.92;18.10;;;8.30;95.30;;;;;;5051147;28;20387;-78
2021/04/20 04:22:54;;;;;;;26.55;17.67;;;8.10;95.30;;;;;;5053765;28;20056;-78
2021/04/20 04:26:10;;;;;;;26.63;18.33;;;8.20;95.40;;;;;;5054734;28;20403;-79
2021/04/20 04:29:16;;;;;;;24.45;18.02;;;8.10;95.40;;;;;;5054153;28;20040;-78
2021/04/20 04:32:21;;;;;;;22.60;18.13;;;8.20;95.60;;;;;;5053913;28;20036;-78
2021/04/20 04:35:28;;;;;;;27.55;20.70;;;8.30;95.30;;;;;;5054596;28;20048;-78
2021/04/20 04:38:32;;;;;;;24.83;20.08;;;8.30;95.20;;;;;;5054743;28;20044;-78
2021/04/20 04:41:36;;;;;;;26.15;18.65;;;8.40;95.70;;;;;;5054518;28;20055;-78
2021/04/20 04:44:40;;;;;;;29.38;19.40;;;8.50;95.50;;;;;;5054446;28;20036;-79
2021/04/20 04:47:45;;;;;;;28.67;19.05;;;8.60;94.50;;;;;;5054405;28;20044;-78
2021/04/20 04:50:51;;;;;;;21.50;17.80;;;8.60;95.00;;;;;;5042286;28;20052;-78
2021/04/20 04:53:57;;;;;;;24.05;17.80;;;8.60;95.10;;;;;;5054364;28;20051;-78
2021/04/20 04:57:04;;;;;;;26.25;17.38;;;8.80;94.80;;;;;;5054162;28;20499;-78
2021/04/20 05:00:09;;;;;;;21.92;15.27;;;9.00;94.30;;;;;;5054170;28;20531;-78
2021/04/20 05:03:16;;;;;;;22.95;15.32;;;9.40;93.70;;;;;;5054730;28;20523;-78
2021/04/20 05:06:21;;;;;;;21.33;14.90;;;9.60;92.80;;;;;;5054873;28;20048;-78
2021/04/20 05:09:27;;;;;;;20.17;14.23;;;9.80;92.40;;;;;;5053738;28;20052;-78
2021/04/20 05:12:35;;;;;;;17.15;13.23;;;10.20;91.60;;;;;;5054698;28;20431;-78
2021/04/20 05:15:39;;;;;;;19.63;14.23;;;10.90;90.40;;;;;;5053993;28;20056;-78
2021/04/20 05:18:44;;;;;;;18.70;14.23;;;11.20;88.20;;;;;;5053870;28;20044;-78
2021/04/20 05:21:48;;;;;;;23.38;14.18;;;11.50;87.60;;;;;;5054194;28;20052;-78
2021/04/20 05:24:53;;;;;;;21.10;13.10;;;11.90;86.10;;;;;;5053518;28;20036;-78
2021/04/20 05:27:56;;;;;;;19.95;13.60;;;12.40;83.10;;;;;;5053801;28;20036;-83
2021/04/20 05:31:00;;;;;;;19.00;13.27;;;12.50;83.50;;;;;;5053779;28;20388;-83
2021/04/20 05:34:06;;;;;;;35.25;14.82;;;12.80;83.00;;;;;;5052356;28;20048;-83
2021/04/20 05:37:11;;;;;;;19.27;11.88;;;13.20;82.10;;;;;;5053675;28;20047;-83
2021/04/20 05:40:20;;;;;;;20.55;12.40;;;14.00;80.60;;;;;;5052622;28;20036;-80
2021/04/20 05:43:25;;;;;;;19.35;12.02;;;14.60;77.10;;;;;;5053431;28;20052;-80
2021/04/20 05:46:29;;;;;;;18.88;10.90;;;14.90;76.10;;;;;;5052890;28;20036;-80
2021/04/20 05:49:33;;;;;;;105.78;53.58;;;15.10;75.00;;;;;;5052395;28;20048;-74
2021/04/20 05:52:38;;;;;;;29.08;11.90;;;15.20;75.30;;;;;;5053218;28;20044;-75
2021/04/20 05:55:42;;;;;;;23.88;11.52;;;15.20;75.40;;;;;;5053248;28;20519;-75
2021/04/20 05:58:51;;;;;;;23.55;11.45;;;15.10;74.90;;;;;;5052937;28;20044;-75
2021/04/20 06:01:55;;;;;;;21.20;11.13;;;15.00;75.40;;;;;;5052667;28;20055;-75
2021/04/20 06:05:10;;;;;;;10.77;9.38;;;15.10;74.90;;;;;;5052926;28;20135;-75
2021/04/20 06:08:15;;;;;;;30.33;16.00;;;15.30;74.60;;;;;;5052773;28;20048;-71
2021/04/20 06:11:21;;;;;;;14.85;10.07;;;15.50;75.40;;;;;;5052601;28;20044;-73
2021/04/20 06:14:25;;;;;;;17.90;11.40;;;15.70;73.80;;;;;;5052926;28;20048;-73
2021/04/20 06:17:29;;;;;;;27.35;11.57;;;15.70;74.20;;;;;;5052222;28;20040;-73
2021/04/20 06:20:33;;;;;;;16.85;11.30;;;15.80;73.80;;;;;;5052610;28;20052;-73
2021/04/20 06:23:38;;;;;;;15.55;11.05;;;15.90;73.70;;;;;;5052444;28;20388;-71
2021/04/20 06:26:42;;;;;;;14.70;10.27;;;16.10;73.10;;;;;;5052540;28;20495;-72
2021/04/20 06:29:47;;;;;;;13.63;10.77;;;16.20;72.70;;;;;;5052109;28;20040;-72
2021/04/20 06:32:52;;;;;;;21.48;10.77;;;16.40;71.00;;;;;;5051973;28;20056;-72
2021/04/20 06:35:57;;;;;;;106.82;80.25;;;16.10;72.90;;;;;;5052326;28;20056;-72
2021/04/20 06:39:02;;;;;;;17.15;11.27;;;16.10;72.50;;;;;;5051541;28;20055;-71
2021/04/20 06:42:10;;;;;;;15.52;10.68;;;16.20;71.80;;;;;;5052160;28;20067;-71
2021/04/20 06:45:38;;;;;;;15.60;10.13;;;16.50;71.80;;;;;;5051244;28;20044;-71
2021/04/20 06:49:01;;;;;;;15.38;9.82;;;16.80;69.60;;;;;;5051920;28;20404;-68
2021/04/20 06:52:10;;;;;;;18.55;11.20;;;16.90;69.60;;;;;;5051192;28;20100;-70
2021/04/20 06:55:24;;;;;;;13.80;10.70;;;17.00;70.00;;;;;;5050815;28;20369;-72
2021/04/20 06:58:50;;;;;;;41.50;27.35;;;17.10;68.40;;;;;;5051765;28;20044;-73
2021/04/20 07:02:05;;;;;;;12.18;9.15;;;16.90;69.10;;;;;;5051898;28;20503;-72
2021/04/20 07:05:11;;;;;;;12.40;8.88;;;17.20;67.30;;;;;;5051638;28;20044;-70
2021/04/20 07:08:23;;;;;;;13.07;9.02;;;17.40;68.10;;;;;;5051811;28;20044;-72
2021/04/20 07:11:33;;;;;;;34.05;10.55;;;17.90;66.60;;;;;;5051547;28;20048;-70
2021/04/20 07:14:44;;;;;;;17.10;9.68;;;18.20;66.20;;;;;;5051614;28;20054;-72
2021/04/20 07:18:11;;;;;;;15.18;11.30;;;18.30;64.50;;;;;;5050640;28;20044;-71
2021/04/20 07:21:27;;;;;;;13.98;9.70;;;18.10;64.30;;;;;;5051595;28;20040;-72
2021/04/20 07:24:41;;;;;;;14.57;9.27;;;17.90;66.70;;;;;;5051506;28;20392;-72
2021/04/20 07:27:54;;;;;;;14.35;9.23;;;18.10;64.70;;;;;;5050954;28;20048;-74
2021/04/20 07:31:12;;;;;;;14.55;9.50;;;18.40;64.10;;;;;;5050885;28;20044;-75
2021/04/20 07:34:26;;;;;;;17.52;11.23;;;18.80;63.30;;;;;;5051211;28;20420;-72
2021/04/20 07:37:39;;;;;;;22.30;10.82;;;19.10;63.60;;;;;;5050994;28;20047;-73
2021/04/20 07:41:24;;;;;;;24.63;11.88;;;19.30;63.20;;;;;;5050689;28;20036;-77
2021/04/20 07:44:44;;;;;;;33.55;10.00;;;19.60;62.10;;;;;;5051014;28;20405;-74
2021/04/20 07:47:51;;;;;;;;;;;19.50;60.20;;;;;;5051330;28;20048;-72
2021/04/20 07:51:03;;;;;;;14.80;9.82;;;19.00;60.30;;;;;;5049836;28;19943;-71
2021/04/20 07:54:31;;;;;;;44.80;11.20;;;18.50;61.50;;;;;;5049647;28;20044;-74
2021/04/20 07:57:41;;;;;;;12.65;9.02;;;18.30;63.30;;;;;;5050672;28;20044;-74
2021/04/20 08:01:11;;;;;;;18.13;8.35;;;18.60;62.20;;;;;;5050238;28;20535;-73
2021/04/20 08:04:44;;;;;;;14.10;7.75;;;18.70;62.30;;;;;;5050751;28;20051;-73
2021/04/20 08:07:54;;;;;;;11.00;8.55;;;19.00;61.00;;;;;;5050658;28;20591;-72
2021/04/20 08:11:04;;;;;;;12.10;7.93;;;19.30;59.90;;;;;;5050832;28;20052;-71
2021/04/20 08:14:18;;;;;;;20.20;9.15;;;19.40;59.70;;;;;;5050498;28;20040;-71
2021/04/20 08:17:37;;;;;;;10.23;7.70;;;19.50;60.00;;;;;;5050333;28;20523;-71
2021/04/20 08:20:45;;;;;;;15.00;10.25;;;19.80;58.20;;;;;;5050570;28;20040;-74
2021/04/20 08:23:52;;;;;;;12.88;9.60;;;19.80;60.20;;;;;;5050605;28;20056;-73
2021/04/20 08:27:03;;;;;;;12.93;9.90;;;19.60;60.90;;;;;;5050732;28;20059;-72
2021/04/20 08:30:17;;;;;;;18.90;11.18;;;19.20;60.20;;;;;;5050255;28;20044;-72
2021/04/20 08:33:27;;;;;;;14.68;10.13;;;18.50;59.70;;;;;;5050724;28;20055;-75
2021/04/20 08:37:06;;;;;;;10.63;7.15;;;18.00;62.10;;;;;;5050551;28;20048;-74
2021/04/20 08:40:44;;;;;;;12.77;9.18;;;18.20;62.90;;;;;;5050759;28;20644;-72
2021/04/20 08:44:00;;;;;;;11.63;8.82;;;18.50;59.40;;;;;;5049890;28;20071;-74
2021/04/20 08:47:08;;;;;;;13.23;8.93;;;18.30;58.50;;;;;;5050463;28;20052;-73
2021/04/20 08:50:17;;;;;;;13.50;7.88;;;18.40;60.40;;;;;;5049303;28;20051;-72
2021/04/20 08:53:58;;;;;;;11.80;9.10;;;18.80;60.70;;;;;;5050372;28;20048;-72
2021/04/20 08:57:25;;;;;;;9.30;6.93;;;18.90;59.70;;;;;;5050304;28;20048;-72
2021/04/20 09:00:50;;;;;;;16.85;7.25;;;19.10;57.50;;;;;;5050203;28;20057;-75
2021/04/20 09:04:16;;;;;;;7.95;5.13;;;19.30;55.80;;;;;;5050517;28;20048;-74
2021/04/20 09:08:05;;;;;;;9.75;6.80;;;19.20;56.90;;;;;;5051397;28;20060;-72
2021/04/20 09:11:16;;;;;;;9.43;5.95;;;19.20;56.30;;;;;;5053838;28;20049;-73
2021/04/20 09:14:27;;;;;;;;;;;19.00;57.20;;;;;;5054684;28;20073;-73
2021/04/20 09:17:39;;;;;;;9.75;6.38;;;19.00;58.10;;;;;;5054318;28;19915;-72
2021/04/20 09:20:53;;;;;;;10.57;8.15;;;19.20;58.10;;;;;;5053513;28;20033;-71
2021/04/20 09:24:06;;;;;;;14.07;9.02;;;19.10;57.50;;;;;;5053538;28;20048;-74
2021/04/20 09:27:13;;;;;;;20.33;12.15;;;18.90;58.90;;;;;;5053241;28;20032;-71
2021/04/20 09:30:21;;;;;;;29.48;11.68;;;18.50;60.80;;;;;;5053307;28;20048;-77
2021/04/20 09:33:42;;;;;;;22.00;10.30;;;18.20;63.50;;;;;;5052380;28;20563;-72
2021/04/20 09:36:46;;;;;;;17.60;10.85;;;17.90;64.60;;;;;;5053340;28;20048;-72
2021/04/20 09:39:54;;;;;;;25.65;11.18;;;17.70;65.90;;;;;;5052134;28;20035;-72
2021/04/20 09:43:09;;;;;;;15.65;10.60;;;17.60;66.40;;;;;;5052866;28;20044;-72
2021/04/20 09:46:28;;;;;;;21.58;11.38;;;17.40;66.80;;;;;;5053474;28;20052;-72
2021/04/20 09:49:54;;;;;;;36.10;13.68;;;17.40;67.80;;;;;;5053362;28;20040;-70
2021/04/20 09:53:16;;;;;;;19.15;11.63;;;17.30;68.50;;;;;;5053073;28;20519;-71
2021/04/20 09:56:33;;;;;;;17.30;12.07;;;17.30;68.20;;;;;;5053303;28;20051;-72
2021/04/20 09:59:53;;;;;;;21.25;12.95;;;17.20;69.10;;;;;;5053113;28;20056;-72
2021/04/20 10:03:13;;;;;;;24.30;11.85;;;17.20;69.10;;;;;;5053066;28;20059;-72
2021/04/20 10:06:48;;;;;;;28.30;11.73;;;17.20;70.00;;;;;;5052696;28;20056;-72
2021/04/20 10:10:07;;;;;;;17.13;12.13;;;17.10;70.70;;;;;;5052356;28;20404;-71
2021/04/20 10:13:53;;;;;;;20.65;12.82;;;17.10;70.00;;;;;;5052593;28;20040;-72
2021/04/20 10:17:27;;;;;;;19.83;10.77;;;17.20;68.90;;;;;;5051652;28;20044;-72
2021/04/20 10:20:49;;;;;;;29.38;11.45;;;17.20;68.40;;;;;;5053127;28;20040;-72
2021/04/20 10:24:16;;;;;;;15.43;10.02;;;17.60;68.20;;;;;;5052558;28;20047;-71
2021/04/20 10:27:25;;;;;;;21.52;12.85;;;18.00;67.40;;;;;;5052363;28;20043;-72
2021/04/20 10:30:35;;;;;;;21.90;9.88;;;18.00;67.40;;;;;;5052380;28;20044;-69
2021/04/20 10:33:41;;;;;;;12.13;8.75;;;17.90;67.60;;;;;;5052136;28;20036;-75
2021/04/20 10:36:56;;;;;;;26.52;18.42;;;17.80;67.50;;;;;;5051933;28;20044;-73
2021/04/20 10:40:06;;;;;;;12.30;9.70;;;17.70;66.70;;;;;;5051150;28;20048;-70
2021/04/20 10:43:12;;;;;;;13.20;9.20;;;17.60;67.60;;;;;;5052025;28;20412;-70
2021/04/20 10:46:23;;;;;;;12.43;8.25;;;17.60;67.40;;;;;;5050996;28;20044;-71
2021/04/20 10:49:29;;;;;;;15.18;7.65;;;17.60;67.30;;;;;;5051899;28;20047;-69
2021/04/20 10:52:36;;;;;;;11.63;7.35;;;17.70;67.30;;;;;;5051976;28;20077;-70
2021/04/20 10:55:46;;;;;;;14.35;7.32;;;17.70;68.10;;;;;;5051928;28;20054;-71
2021/04/20 10:58:56;;;;;;;12.77;8.18;;;17.50;69.10;;;;;;5051889;28;20219;-72
2021/04/20 11:02:05;;;;;;;14.10;8.38;;;17.40;71.30;;;;;;5051170;28;20048;-71
2021/04/20 11:05:10;;;;;;;12.05;7.10;;;17.20;72.60;;;;;;5050802;28;20052;-70
2021/04/20 11:08:23;;;;;;;13.77;7.50;;;17.10;72.70;;;;;;5051459;28;20032;-70
2021/04/20 11:11:27;;;;;;;11.13;7.45;;;17.00;72.80;;;;;;5051854;28;20307;-71
2021/04/20 11:14:43;;;;;;;10.02;6.82;;;17.00;70.70;;;;;;5051732;28;20373;-70
2021/04/20 11:17:56;;;;;;;16.73;6.45;;;17.00;72.20;;;;;;5051217;28;20396;-70
2021/04/20 11:21:05;;;;;;;12.05;6.95;;;17.20;72.80;;;;;;5051844;28;20055;-70
2021/04/20 11:24:20;;;;;;;12.25;7.15;;;17.40;69.10;;;;;;5051352;28;20056;-71
2021/04/20 11:27:29;;;;;;;24.23;7.20;;;17.60;66.70;;;;;;5050995;28;20384;-71
2021/04/20 11:30:37;;;;;;;16.85;6.80;;;17.80;66.90;;;;;;5050870;28;20044;-71
2021/04/20 11:33:48;;;;;;;12.25;6.88;;;17.90;66.50;;;;;;5051413;28;20040;-71
2021/04/20 11:37:01;;;;;;;10.18;7.07;;;17.90;65.60;;;;;;5050162;28;20044;-71
2021/04/20 11:40:16;;;;;;;13.48;6.18;;;17.70;64.00;;;;;;5050593;28;20040;-71
2021/04/20 11:43:20;;;;;;;14.10;6.35;;;17.60;64.80;;;;;;5050230;28;20056;-71
2021/04/20 11:46:27;;;;;;;10.65;6.50;;;17.50;65.70;;;;;;5050174;28;20395;-71
2021/04/20 11:49:32;;;;;;;40.22;23.40;;;17.30;66.60;;;;;;5051357;28;20052;-71
2021/04/20 11:52:38;;;;;;;32.95;10.75;;;17.30;70.90;;;;;;5051109;28;20040;-70
2021/04/20 11:55:44;;;;;;;21.08;8.48;;;17.30;68.80;;;;;;5051056;28;20047;-70
2021/04/20 11:58:49;;;;;;;13.48;8.75;;;17.20;69.50;;;;;;5051272;28;20052;-70
2021/04/20 12:01:55;;;;;;;16.60;12.15;;;17.20;70.40;;;;;;5051127;28;20052;-74
2021/04/20 12:05:02;;;;;;;11.65;8.20;;;17.20;74.30;;;;;;5050942;28;20044;-71
2021/04/20 12:08:11;;;;;;;12.32;9.20;;;17.20;71.50;;;;;;5050749;28;20036;-71
2021/04/20 12:11:17;;;;;;;13.32;8.30;;;17.00;73.20;;;;;;5328214;22;20057;-72
2021/04/20 12:14:24;;;;;;;17.73;7.10;;;17.00;73.00;;;;;;5030108;28;20495;-73
2021/04/20 12:17:38;;;;;;;23.92;7.65;;;17.00;70.70;;;;;;5030597;28;20044;-72
2021/04/20 12:20:42;;;;;;;14.20;7.13;;;17.10;70.60;;;;;;5030745;28;20503;-73
2021/04/20 12:23:55;;;;;;;20.38;8.10;;;17.20;68.80;;;;;;5030699;28;20061;-72
2021/04/20 12:27:03;;;;;;;19.35;7.43;;;17.40;70.50;;;;;;5030864;28;20044;-72
2021/04/20 12:30:11;;;;;;;16.15;7.13;;;17.50;67.40;;;;;;5031110;28;20048;-74
2021/04/20 12:33:30;;;;;;;21.00;13.60;;;17.60;68.10;;;;;;5030810;28;20388;-75
2021/04/20 12:36:48;;;;;;;14.57;6.43;;;17.80;69.30;;;;;;5030459;28;20365;-71
2021/04/20 12:40:12;;;;;;;10.95;6.82;;;17.80;67.20;;;;;;5031337;28;20048;-72
2021/04/20 12:43:23;;;;;;;10.43;6.22;;;17.80;65.50;;;;;;5033325;28;20052;-74
2021/04/20 12:46:29;;;;;;;11.88;7.00;;;17.90;65.20;;;;;;5034796;28;20064;-72
2021/04/20 12:49:36;;;;;;;15.35;7.00;;;17.90;65.20;;;;;;5035134;28;20504;-73
2021/04/20 12:52:42;;;;;;;9.60;6.90;;;17.90;65.00;;;;;;5034671;28;20052;-76
2021/04/20 12:55:49;;;;;;;10.82;5.95;;;18.00;65.30;;;;;;5034563;28;20041;-71
2021/04/20 12:58:58;;;;;;;13.57;6.70;;;18.00;65.20;;;;;;5034801;28;20045;-71
2021/04/20 13:02:03;;;;;;;8.57;6.40;;;18.10;63.30;;;;;;5034372;28;20048;-70
2021/04/20 13:05:08;;;;;;;16.52;7.32;;;18.10;64.80;;;;;;5034318;28;20048;-71
2021/04/20 13:08:14;;;;;;;15.00;6.50;;;18.10;64.20;;;;;;5034370;28;20044;-73
2021/04/20 13:11:28;;;;;;;12.68;7.00;;;18.10;65.30;;;;;;5034438;28;20068;-72
2021/04/20 13:14:34;;;;;;;12.32;6.93;;;18.10;64.20;;;;;;5034635;28;20037;-73
2021/04/20 13:17:40;;;;;;;11.75;6.88;;;18.10;64.80;;;;;;5034454;28;20052;-71
2021/04/20 13:20:54;;;;;;;10.05;6.88;;;18.10;64.00;;;;;;5034683;28;20400;-71
2021/04/20 13:24:05;;;;;;;12.45;6.68;;;18.10;63.90;;;;;;5032927;28;20052;-70
2021/04/20 13:27:13;;;;;;;14.95;6.43;;;18.00;63.50;;;;;;5034100;28;20036;-70
2021/04/20 13:30:25;;;;;;;19.40;7.50;;;17.80;63.30;;;;;;5033322;28;20041;-73
2021/04/20 13:33:38;;;;;;;30.05;7.75;;;17.80;64.30;;;;;;5033773;28;20037;-74
2021/04/20 13:36:47;;;;;;;10.00;6.55;;;17.80;64.60;;;;;;5033355;28;20425;-72
2021/04/20 13:39:55;;;;;;;7.25;5.35;;;17.90;63.40;;;;;;5033869;28;20050;-73
2021/04/20 13:43:02;;;;;;;11.00;6.55;;;17.80;63.80;;;;;;5033621;28;20066;-72
2021/04/20 13:46:10;;;;;;;12.75;6.25;;;17.90;64.10;;;;;;5033402;28;20040;-70
2021/04/20 13:49:14;;;;;;;15.30;6.70;;;17.90;63.70;;;;;;5033343;28;20436;-72
2021/04/20 13:52:21;;;;;;;7.88;6.30;;;17.90;64.40;;;;;;5033248;28;20048;-68
2021/04/20 13:55:31;;;;;;;10.70;5.78;;;18.00;64.40;;;;;;5032126;28;20042;-71
2021/04/20 13:59:12;;;;;;;10.07;6.53;;;18.00;64.50;;;;;;5033094;28;20048;-71
2021/04/20 14:02:18;;;;;;;12.85;6.35;;;18.00;64.80;;;;;;5032109;28;20057;-71
2021/04/20 14:05:42;;;;;;;9.82;5.50;;;17.90;65.40;;;;;;5021120;28;20052;-73
2021/04/20 14:09:05;;;;;;;10.73;5.97;;;17.90;65.90;;;;;;5033052;28;20396;-75
2021/04/20 14:12:23;;;;;;;10.88;5.70;;;17.90;66.20;;;;;;5033290;28;20060;-72
2021/04/20 14:15:36;;;;;;;6.15;4.63;;;17.80;66.90;;;;;;5033090;28;20384;-71
2021/04/20 14:18:42;;;;;;;11.25;5.35;;;17.80;67.00;;;;;;5032943;28;20052;-71
2021/04/20 14:21:49;;;;;;;9.00;5.20;;;17.80;67.30;;;;;;5032875;28;20396;-75
2021/04/20 14:25:01;;;;;;;16.15;6.05;;;17.80;67.90;;;;;;5033062;28;20045;-72
2021/04/20 14:28:06;;;;;;;;;;;17.80;68.90;;;;;;5033381;28;20791;-76
2021/04/20 14:31:11;;;;;;;16.75;5.40;;;17.90;69.40;;;;;;5032373;28;19916;-72
2021/04/20 14:34:16;;;;;;;12.40;5.93;;;17.90;67.10;;;;;;5031527;28;20044;-69
2021/04/20 14:37:21;;;;;;;6.68;4.57;;;17.80;67.20;;;;;;5032594;28;20052;-69
2021/04/20 14:40:28;;;;;;;14.93;6.18;;;17.80;66.90;;;;;;5020042;28;20492;-73
2021/04/20 14:43:33;;;;;;;7.05;4.90;;;17.60;67.30;;;;;;5032447;28;20056;-70
2021/04/20 14:46:44;;;;;;;7.80;5.43;;;17.50;67.70;;;;;;5031687;28;20045;-71
2021/04/20 14:49:54;;;;;;;9.48;5.43;;;17.50;67.50;;;;;;5030885;28;20041;-70
2021/04/20 14:53:07;;;;;;;13.33;6.10;;;17.40;67.20;;;;;;5029971;28;20037;-69
2021/04/20 14:56:20;;;;;;;11.57;6.20;;;17.30;67.70;;;;;;5031977;28;20295;-68
2021/04/20 14:59:29;;;;;;;9.32;5.88;;;17.30;68.20;;;;;;5032203;28;20048;-68
2021/04/20 15:02:34;;;;;;;8.82;6.10;;;17.30;68.10;;;;;;5030255;28;20037;-72
2021/04/20 15:05:38;;;;;;;9.88;5.47;;;17.20;68.40;;;;;;5030838;28;20401;-72
2021/04/20 15:08:52;;;;;;;6.90;4.97;;;17.20;67.40;;;;;;5030523;28;20026;-73
2021/04/20 15:11:57;;;;;;;;;;;17.10;68.20;;;;;;5031653;28;20077;-71
2021/04/20 15:15:08;;;;;;;15.35;5.75;;;17.10;67.80;;;;;;5031993;28;20355;-67
2021/04/20 15:18:21;;;;;;;9.30;5.28;;;17.10;66.90;;;;;;5031332;28;20080;-68
2021/04/20 15:21:32;;;;;;;11.77;4.50;;;17.00;67.00;;;;;;5031433;28;20081;-70
2021/04/20 15:24:44;;;;;;;10.23;4.60;;;17.10;67.10;;;;;;5031063;28;20056;-72
2021/04/20 15:27:54;;;;;;;11.45;4.72;;;17.10;67.60;;;;;;5031202;28;20041;-72
2021/04/20 15:31:02;;;;;;;9.23;4.90;;;17.00;68.10;;;;;;5030962;28;20052;-72
2021/04/20 15:34:15;;;;;;;15.27;5.43;;;17.10;67.30;;;;;;5019252;28;20042;-72
2021/04/20 15:37:22;;;;;;;9.50;4.78;;;17.00;67.30;;;;;;5031435;28;20396;-70
2021/04/20 15:40:30;;;;;;;8.77;4.70;;;17.00;66.40;;;;;;5031445;28;20058;-71
2021/04/20 15:43:36;;;;;;;13.13;5.15;;;17.00;66.80;;;;;;5031494;28;20049;-74
2021/04/20 15:46:48;;;;;;;16.52;4.78;;;17.00;66.70;;;;;;5030299;28;20500;-72
2021/04/20 15:50:01;;;;;;;7.53;4.80;;;17.00;66.30;;;;;;5030594;28;20055;-72
2021/04/20 15:53:05;;;;;;;;;;;16.90;66.70;;;;;;5031670;28;20045;-71
2021/04/20 15:56:24;;;;;;;9.93;6.32;;;16.50;68.00;;;;;;5019031;28;19940;-70
2021/04/20 15:59:46;;;;;;;;;;;16.20;68.60;;;;;;5011201;28;20041;-73
2021/04/20 16:02:55;;;;;;;7.35;5.53;;;15.40;69.60;;;;;;5031137;28;19924;-76
2021/04/20 16:06:10;;;;;;;6.80;5.15;;;14.90;69.60;;;;;;5031317;28;20037;-72
2021/04/20 16:09:22;;;;;;;6.65;5.53;;;14.60;69.30;;;;;;5020067;28;20398;-71
2021/04/20 16:12:33;;;;;;;7.13;5.35;;;14.40;69.80;;;;;;5030774;28;20057;-72
2021/04/20 16:15:49;;;;;;;10.43;5.30;;;14.50;70.30;;;;;;5029973;28;20049;-69